| Back to River Map | <<< Previous Forecast Point | | | End of River Group | Printer Version | Graph Version |  |
|
NEW RIVER - WESTMORLAND (ZNRC1)
| Latitude: 33.10º N | Longitude: 115.66º W | Elevation: -220 Feet | | Forecast Type: Unofficial Location |
| Location: Imperial County in California | Bulletin Group: Southern California | River Group: San Diego/Inland |
| Issuance Time: | May 07 2026 at 7:38 AM PDT | Next Issuance: | May 08 2026 at 9:00 AM PDT
| |
| Action/Monitor: N/A | Minor Flood: 10.0 Feet | Moderate Flood: N/A | Major Flood: N/A |
# Tabular Observed and Forecast Hydrograph Information
#
# Location: New River - Westmorland (ZNRC1)
#
# File Generation Time: 05/07/2026 at 07:39 AM PDT
# Data Interval: 1 Hour
#
# Most Recent Date & Time of Maximum Observed: 05/06/2026 at 12:00 PM PDT
# Maximum Observed Stage: 5.49 Feet
# Maximum Observed Flow: 537 cfs
#
# Earliest Date & Time of Maximum Forecast: 05/10/2026 at 02:00 PM PDT
# Maximum Forecast Stage: 5.54 Feet
# Maximum Forecast Flow: 547 cfs
#
# OBSERVED
#
# Date & Time (Local) Stage (Feet) Flow (cfs) Trend Observed Status
# ---------------------------------------------------------------------------------
05/02/2026 07 AM PDT 5.22 481 Normal
05/02/2026 08 AM PDT 5.25 487 + Normal
05/02/2026 09 AM PDT 5.26 489 + Normal
05/02/2026 10 AM PDT 5.24 485 - Normal
05/02/2026 11 AM PDT 5.23 483 - Normal
05/02/2026 12 PM PDT 5.20 477 - Normal
05/02/2026 01 PM PDT 5.19 475 - Normal
05/02/2026 02 PM PDT 5.18 473 - Normal
05/02/2026 03 PM PDT 5.16 469 - Normal
05/02/2026 04 PM PDT 5.15 467 - Normal
05/02/2026 05 PM PDT 5.15 467 0 Normal
05/02/2026 06 PM PDT 5.13 462 - Normal
05/02/2026 07 PM PDT 5.11 458 - Normal
05/02/2026 08 PM PDT 5.10 456 - Normal
05/02/2026 09 PM PDT 5.10 456 0 Normal
05/02/2026 10 PM PDT 5.09 454 - Normal
05/02/2026 11 PM PDT 5.09 454 0 Normal
05/03/2026 12 AM PDT 5.10 456 + Normal
05/03/2026 01 AM PDT 5.10 456 0 Normal
05/03/2026 02 AM PDT 5.10 456 0 Normal
05/03/2026 03 AM PDT 5.10 456 0 Normal
05/03/2026 04 AM PDT 5.10 456 0 Normal
05/03/2026 05 AM PDT 5.12 460 + Normal
05/03/2026 06 AM PDT 5.14 465 + Normal
05/03/2026 07 AM PDT 5.17 471 + Normal
05/03/2026 08 AM PDT 5.20 477 + Normal
05/03/2026 09 AM PDT 5.23 483 + Normal
05/03/2026 10 AM PDT 5.26 489 + Normal
05/03/2026 11 AM PDT 5.29 495 + Normal
05/03/2026 12 PM PDT 5.29 495 0 Normal
05/03/2026 01 PM PDT 5.28 493 - Normal
05/03/2026 02 PM PDT 5.27 491 - Normal
05/03/2026 03 PM PDT 5.26 489 - Normal
05/03/2026 04 PM PDT 5.24 485 - Normal
05/03/2026 05 PM PDT 5.20 477 - Normal
05/03/2026 06 PM PDT 5.19 475 - Normal
05/03/2026 07 PM PDT 5.17 471 - Normal
05/03/2026 08 PM PDT 5.16 469 - Normal
05/03/2026 09 PM PDT 5.18 473 + Normal
05/03/2026 10 PM PDT 5.17 471 - Normal
05/03/2026 11 PM PDT 5.16 469 - Normal
05/04/2026 12 AM PDT 5.18 473 + Normal
05/04/2026 01 AM PDT 5.17 471 - Normal
05/04/2026 02 AM PDT 5.19 475 + Normal
05/04/2026 03 AM PDT 5.20 477 + Normal
05/04/2026 04 AM PDT 5.20 477 0 Normal
05/04/2026 05 AM PDT 5.20 477 0 Normal
05/04/2026 06 AM PDT 5.21 479 + Normal
05/04/2026 07 AM PDT 5.22 481 + Normal
05/04/2026 08 AM PDT 5.24 485 + Normal
05/04/2026 09 AM PDT 5.26 489 + Normal
05/04/2026 10 AM PDT 5.27 491 + Normal
05/04/2026 11 AM PDT 5.29 495 + Normal
05/04/2026 12 PM PDT 5.30 497 + Normal
05/04/2026 01 PM PDT 5.30 497 0 Normal
05/04/2026 02 PM PDT 5.30 497 0 Normal
05/04/2026 03 PM PDT 5.30 497 0 Normal
05/04/2026 04 PM PDT 5.27 491 - Normal
05/04/2026 05 PM PDT 5.26 489 - Normal
05/04/2026 06 PM PDT 5.23 483 - Normal
05/04/2026 07 PM PDT 5.20 477 - Normal
05/04/2026 08 PM PDT 5.17 471 - Normal
05/04/2026 09 PM PDT 5.15 467 - Normal
05/04/2026 10 PM PDT 5.15 467 0 Normal
05/04/2026 11 PM PDT 5.15 467 0 Normal
05/05/2026 12 AM PDT 5.16 469 + Normal
05/05/2026 01 AM PDT 5.16 469 0 Normal
05/05/2026 02 AM PDT 5.17 471 + Normal
05/05/2026 03 AM PDT 5.16 469 - Normal
05/05/2026 04 AM PDT 5.16 469 0 Normal
05/05/2026 05 AM PDT 5.17 471 + Normal
05/05/2026 06 AM PDT 5.19 475 + Normal
05/05/2026 07 AM PDT 5.20 477 + Normal
05/05/2026 08 AM PDT 5.23 483 + Normal
05/05/2026 09 AM PDT 5.25 487 + Normal
05/05/2026 10 AM PDT 5.27 491 + Normal
05/05/2026 11 AM PDT 5.29 495 + Normal
05/05/2026 12 PM PDT 5.31 499 + Normal
05/05/2026 01 PM PDT 5.33 503 + Normal
05/05/2026 02 PM PDT 5.33 503 0 Normal
05/05/2026 03 PM PDT 5.30 497 - Normal
05/05/2026 04 PM PDT 5.28 493 - Normal
05/05/2026 05 PM PDT 5.26 489 - Normal
05/05/2026 06 PM PDT 5.22 481 - Normal
05/05/2026 07 PM PDT 5.22 481 0 Normal
05/05/2026 08 PM PDT 5.22 481 0 Normal
05/05/2026 09 PM PDT 5.22 481 0 Normal
05/05/2026 10 PM PDT 5.21 479 - Normal
05/05/2026 11 PM PDT 5.21 479 0 Normal
05/06/2026 12 AM PDT 5.20 477 - Normal
05/06/2026 01 AM PDT 5.22 481 + Normal
05/06/2026 02 AM PDT 5.24 485 + Normal
05/06/2026 03 AM PDT 5.27 491 + Normal
05/06/2026 04 AM PDT 5.29 495 + Normal
05/06/2026 05 AM PDT 5.32 501 + Normal
05/06/2026 06 AM PDT 5.34 505 + Normal
05/06/2026 07 AM PDT 5.36 510 + Normal
05/06/2026 08 AM PDT 5.38 514 + Normal
05/06/2026 09 AM PDT 5.40 518 + Normal
05/06/2026 10 AM PDT 5.43 524 + Normal
05/06/2026 11 AM PDT 5.47 532 + Normal
05/06/2026 12 PM PDT 5.49 537 + Normal
05/06/2026 01 PM PDT 5.48 535 - Normal
05/06/2026 02 PM PDT 5.48 535 0 Normal
05/06/2026 03 PM PDT 5.45 528 - Normal
05/06/2026 04 PM PDT 5.43 524 - Normal
05/06/2026 05 PM PDT 5.39 516 - Normal
05/06/2026 06 PM PDT 5.39 516 0 Normal
05/06/2026 07 PM PDT 5.37 512 - Normal
05/06/2026 08 PM PDT 5.36 510 - Normal
05/06/2026 09 PM PDT 5.36 510 0 Normal
05/06/2026 10 PM PDT 5.32 501 - Normal
05/06/2026 11 PM PDT 5.29 495 - Normal
05/07/2026 12 AM PDT 5.29 495 0 Normal
05/07/2026 01 AM PDT 5.27 491 - Normal
05/07/2026 02 AM PDT 5.26 489 - Normal
05/07/2026 03 AM PDT 5.29 495 + Normal
05/07/2026 04 AM PDT 5.31 499 + Normal
05/07/2026 05 AM PDT 5.33 503 + Normal
05/07/2026 06 AM PDT 5.33 503 0 Normal
05/07/2026 07 AM PDT 5.33 503 0 Normal
#
# FORECAST
#
# Date & Time (Local) Stage (Feet) Flow (cfs) Trend Forecast Status
# ---------------------------------------------------------------------------------
05/07/2026 08 AM PDT 5.33 503 Normal
05/07/2026 09 AM PDT 5.33 503 0 Normal
05/07/2026 10 AM PDT 5.33 503 0 Normal
05/07/2026 11 AM PDT 5.33 503 0 Normal
05/07/2026 12 PM PDT 5.33 503 0 Normal
05/07/2026 01 PM PDT 5.33 503 0 Normal
05/07/2026 02 PM PDT 5.33 503 0 Normal
05/07/2026 03 PM PDT 5.33 503 0 Normal
05/07/2026 04 PM PDT 5.33 503 0 Normal
05/07/2026 05 PM PDT 5.33 503 0 Normal
05/07/2026 06 PM PDT 5.31 499 - Normal
05/07/2026 07 PM PDT 5.31 499 0 Normal
05/07/2026 08 PM PDT 5.31 499 0 Normal
05/07/2026 09 PM PDT 5.31 499 0 Normal
05/07/2026 10 PM PDT 5.31 499 0 Normal
05/07/2026 11 PM PDT 5.31 499 0 Normal
05/08/2026 12 AM PDT 5.31 499 0 Normal
05/08/2026 01 AM PDT 5.31 499 0 Normal
05/08/2026 02 AM PDT 5.31 499 0 Normal
05/08/2026 03 AM PDT 5.31 499 0 Normal
05/08/2026 04 AM PDT 5.31 499 0 Normal
05/08/2026 05 AM PDT 5.32 501 + Normal
05/08/2026 06 AM PDT 5.32 501 0 Normal
05/08/2026 07 AM PDT 5.32 501 0 Normal
05/08/2026 08 AM PDT 5.32 501 0 Normal
05/08/2026 09 AM PDT 5.33 503 + Normal
05/08/2026 10 AM PDT 5.33 503 0 Normal
05/08/2026 11 AM PDT 5.33 503 0 Normal
05/08/2026 12 PM PDT 5.34 505 + Normal
05/08/2026 01 PM PDT 5.35 507 + Normal
05/08/2026 02 PM PDT 5.36 510 + Normal
05/08/2026 03 PM PDT 5.37 512 + Normal
05/08/2026 04 PM PDT 5.38 514 + Normal
05/08/2026 05 PM PDT 5.39 516 + Normal
05/08/2026 06 PM PDT 5.38 514 - Normal
05/08/2026 07 PM PDT 5.39 516 + Normal
05/08/2026 08 PM PDT 5.40 518 + Normal
05/08/2026 09 PM PDT 5.41 520 + Normal
05/08/2026 10 PM PDT 5.42 522 + Normal
05/08/2026 11 PM PDT 5.43 524 + Normal
05/09/2026 12 AM PDT 5.44 526 + Normal
05/09/2026 01 AM PDT 5.44 526 0 Normal
05/09/2026 02 AM PDT 5.45 528 + Normal
05/09/2026 03 AM PDT 5.46 530 + Normal
05/09/2026 04 AM PDT 5.46 530 0 Normal
05/09/2026 05 AM PDT 5.47 532 + Normal
05/09/2026 06 AM PDT 5.47 532 0 Normal
05/09/2026 07 AM PDT 5.48 535 + Normal
05/09/2026 08 AM PDT 5.48 535 0 Normal
05/09/2026 09 AM PDT 5.49 537 + Normal
05/09/2026 10 AM PDT 5.49 537 0 Normal
05/09/2026 11 AM PDT 5.50 539 + Normal
05/09/2026 12 PM PDT 5.50 539 0 Normal
05/09/2026 01 PM PDT 5.50 539 0 Normal
05/09/2026 02 PM PDT 5.51 541 + Normal
05/09/2026 03 PM PDT 5.51 541 0 Normal
05/09/2026 04 PM PDT 5.51 541 0 Normal
05/09/2026 05 PM PDT 5.51 541 0 Normal
05/09/2026 06 PM PDT 5.50 539 - Normal
05/09/2026 07 PM PDT 5.51 541 + Normal
05/09/2026 08 PM PDT 5.51 541 0 Normal
05/09/2026 09 PM PDT 5.51 541 0 Normal
05/09/2026 10 PM PDT 5.51 541 0 Normal
05/09/2026 11 PM PDT 5.51 541 0 Normal
05/10/2026 12 AM PDT 5.52 543 + Normal
05/10/2026 01 AM PDT 5.52 543 0 Normal
05/10/2026 02 AM PDT 5.52 543 0 Normal
05/10/2026 03 AM PDT 5.52 543 0 Normal
05/10/2026 04 AM PDT 5.52 543 0 Normal
05/10/2026 05 AM PDT 5.53 545 + Normal
05/10/2026 06 AM PDT 5.53 545 0 Normal
05/10/2026 07 AM PDT 5.53 545 0 Normal
05/10/2026 08 AM PDT 5.53 545 0 Normal
05/10/2026 09 AM PDT 5.53 545 0 Normal
05/10/2026 10 AM PDT 5.53 545 0 Normal
05/10/2026 11 AM PDT 5.53 545 0 Normal
05/10/2026 12 PM PDT 5.53 545 0 Normal
05/10/2026 01 PM PDT 5.53 545 0 Normal
05/10/2026 02 PM PDT 5.54 547 + Normal
05/10/2026 03 PM PDT 5.54 547 0 Normal
05/10/2026 04 PM PDT 5.54 547 0 Normal
05/10/2026 05 PM PDT 5.54 547 0 Normal
05/10/2026 06 PM PDT 5.52 543 - Normal
05/10/2026 07 PM PDT 5.52 543 0 Normal
05/10/2026 08 PM PDT 5.53 545 + Normal
05/10/2026 09 PM PDT 5.53 545 0 Normal
05/10/2026 10 PM PDT 5.53 545 0 Normal
05/10/2026 11 PM PDT 5.53 545 0 Normal
05/11/2026 12 AM PDT 5.53 545 0 Normal
05/11/2026 01 AM PDT 5.53 545 0 Normal
05/11/2026 02 AM PDT 5.53 545 0 Normal
05/11/2026 03 AM PDT 5.53 545 0 Normal
05/11/2026 04 AM PDT 5.53 545 0 Normal
05/11/2026 05 AM PDT 5.53 545 0 Normal
05/11/2026 06 AM PDT 5.53 545 0 Normal
05/11/2026 07 AM PDT 5.53 545 0 Normal
05/11/2026 08 AM PDT 5.53 545 0 Normal
05/11/2026 09 AM PDT 5.53 545 0 Normal
05/11/2026 10 AM PDT 5.53 545 0 Normal
05/11/2026 11 AM PDT 5.53 545 0 Normal
05/11/2026 12 PM PDT 5.53 545 0 Normal
05/11/2026 01 PM PDT 5.53 545 0 Normal
05/11/2026 02 PM PDT 5.53 545 0 Normal
05/11/2026 03 PM PDT 5.53 545 0 Normal
05/11/2026 04 PM PDT 5.53 545 0 Normal
05/11/2026 05 PM PDT 5.53 545 0 Normal
05/11/2026 06 PM PDT 5.52 543 - Normal
05/11/2026 07 PM PDT 5.52 543 0 Normal
05/11/2026 08 PM PDT 5.52 543 0 Normal
05/11/2026 09 PM PDT 5.52 543 0 Normal
05/11/2026 10 PM PDT 5.52 543 0 Normal
05/11/2026 11 PM PDT 5.52 543 0 Normal
05/12/2026 12 AM PDT 5.52 543 0 Normal
05/12/2026 01 AM PDT 5.52 543 0 Normal
05/12/2026 02 AM PDT 5.52 543 0 Normal
05/12/2026 03 AM PDT 5.52 543 0 Normal
05/12/2026 04 AM PDT 5.52 543 0 Normal
05/12/2026 05 AM PDT 5.52 543 0 Normal
#
# NOTE 1: Stages are rounded to the nearest hundredth (.01) of a foot.
# NOTE 2: Flows are rounded to the nearest (1) cfs.
# NOTE 3: Trends are determined using hourly change in unrounded stage and flow.
# NOTE 4: Maximum Values are determined using unrounded stage and flow.
|